createdAt,value
2024-05-09T00:00:36.171Z,16.15
2024-05-09T00:01:41.453Z,16.25
2024-05-09T00:02:43.381Z,20.30
2024-05-09T00:03:47.029Z,15.55
2024-05-09T00:04:49.030Z,14.48
2024-05-09T00:06:52.746Z,16.27
2024-05-09T00:07:54.616Z,16.92
2024-05-09T00:08:56.455Z,14.52
2024-05-09T00:09:58.274Z,14.10
2024-05-09T00:11:00.207Z,15.43
2024-05-09T00:12:02.338Z,15.27
2024-05-09T00:13:04.483Z,14.73
2024-05-09T00:14:06.377Z,16.05
2024-05-09T00:15:08.717Z,13.52
2024-05-09T00:16:10.586Z,15.02
2024-05-09T00:17:12.608Z,15.32
2024-05-09T00:18:14.659Z,16.10
2024-05-09T00:19:16.698Z,17.17
2024-05-09T00:20:24.482Z,12.20
2024-05-09T00:21:30.549Z,16.38
2024-05-09T00:22:32.531Z,14.93
2024-05-09T00:23:34.538Z,18.48
2024-05-09T00:24:36.537Z,13.00
2024-05-09T00:25:38.696Z,16.48
2024-05-09T00:26:40.606Z,14.57
2024-05-09T00:27:42.491Z,16.25
2024-05-09T00:28:44.465Z,12.93
2024-05-09T00:29:46.570Z,14.93
2024-05-09T00:30:48.432Z,14.45
2024-05-09T00:31:50.369Z,17.85
2024-05-09T00:32:52.406Z,15.48
2024-05-09T00:33:54.652Z,15.20
2024-05-09T00:34:56.823Z,17.80
2024-05-09T00:35:58.784Z,14.50
2024-05-09T00:37:00.657Z,14.48
2024-05-09T00:38:02.639Z,16.77
2024-05-09T00:39:04.563Z,14.52
2024-05-09T00:40:09.582Z,15.82
2024-05-09T00:41:19.716Z,16.00
2024-05-09T00:42:21.797Z,15.25
2024-05-09T00:43:23.629Z,17.33
2024-05-09T00:44:25.588Z,13.95
2024-05-09T00:45:27.462Z,15.40
2024-05-09T00:46:29.541Z,14.30
2024-05-09T00:47:31.637Z,15.88
2024-05-09T00:48:34.748Z,16.17
2024-05-09T00:49:37.247Z,16.35
2024-05-09T00:50:42.322Z,17.45
2024-05-09T00:51:45.831Z,16.00
2024-05-09T00:52:48.158Z,15.57
2024-05-09T00:53:50.092Z,18.13
2024-05-09T00:54:52.053Z,16.30
2024-05-09T00:55:56.346Z,15.88
2024-05-09T00:56:58.239Z,16.45
2024-05-09T00:58:00.525Z,15.07
2024-05-09T00:59:03.405Z,16.73
2024-05-09T01:00:18.367Z,16.45
2024-05-09T01:01:29.423Z,16.50
2024-05-09T01:02:32.688Z,15.57
2024-05-09T01:03:34.834Z,14.50
2024-05-09T01:04:36.952Z,15.00
2024-05-09T01:05:39.899Z,13.30
2024-05-09T01:06:42.229Z,15.85
2024-05-09T01:07:44.272Z,12.57
2024-05-09T01:08:46.225Z,11.23
2024-05-09T01:09:48.059Z,14.90
2024-05-09T01:10:50.116Z,14.18
2024-05-09T01:11:52.073Z,13.50
2024-05-09T01:12:54.060Z,12.05
2024-05-09T01:13:55.919Z,16.08
2024-05-09T01:14:57.871Z,14.63
2024-05-09T01:15:59.852Z,14.25
2024-05-09T01:17:01.808Z,15.13
2024-05-09T01:18:10.718Z,12.95
2024-05-09T01:19:29.662Z,13.90
2024-05-09T01:20:40.133Z,16.25
2024-05-09T01:21:44.954Z,17.67
2024-05-09T01:22:47.894Z,16.00
2024-05-09T01:23:49.743Z,14.77
2024-05-09T01:24:52.334Z,16.15
2024-05-09T01:25:54.268Z,17.83
2024-05-09T01:26:56.221Z,17.50
2024-05-09T01:27:58.052Z,16.75
2024-05-09T01:28:59.956Z,16.42
2024-05-09T01:30:03.053Z,19.08
2024-05-09T01:31:05.949Z,19.63
2024-05-09T01:32:07.877Z,19.73
2024-05-09T01:33:11.655Z,20.52
2024-05-09T01:34:14.496Z,23.00
2024-05-09T01:35:16.545Z,21.67
2024-05-09T01:36:18.701Z,26.40
2024-05-09T01:37:20.597Z,23.45
2024-05-09T01:38:22.503Z,25.23
2024-05-09T01:39:24.593Z,25.45
2024-05-09T01:40:36.194Z,25.73
2024-05-09T01:41:40.926Z,27.25
2024-05-09T01:42:42.769Z,31.02
2024-05-09T01:43:44.673Z,28.25
2024-05-09T01:44:47.074Z,27.83
2024-05-09T01:45:48.958Z,28.48
2024-05-09T01:46:50.869Z,27.10
2024-05-09T01:47:52.912Z,27.83
2024-05-09T01:48:55.115Z,35.97
2024-05-09T01:49:57.102Z,30.83
2024-05-09T01:50:59.031Z,29.70
2024-05-09T01:52:00.925Z,31.42
2024-05-09T01:53:02.919Z,29.23
2024-05-09T01:54:04.811Z,30.77
2024-05-09T01:55:09.483Z,34.90
2024-05-09T01:56:11.401Z,31.45
2024-05-09T01:57:13.226Z,31.90
2024-05-09T01:58:15.061Z,31.88
2024-05-09T01:59:16.921Z,30.25
2024-05-09T02:00:30.020Z,33.63
2024-05-09T02:01:56.222Z,30.40
2024-05-09T02:02:59.835Z,30.80
2024-05-09T02:04:02.327Z,31.33
2024-05-09T02:05:04.830Z,31.73
2024-05-09T02:06:06.992Z,31.35
2024-05-09T02:07:08.983Z,30.50
2024-05-09T02:08:15.401Z,31.95
2024-05-09T02:09:17.538Z,29.15
2024-05-09T02:10:26.166Z,30.73
2024-05-09T02:11:41.224Z,32.13
2024-05-09T02:12:43.116Z,29.08
2024-05-09T02:13:44.935Z,27.55
2024-05-09T02:14:46.799Z,27.08
2024-05-09T02:15:52.429Z,27.67
2024-05-09T02:16:54.408Z,26.73
2024-05-09T02:17:59.215Z,28.02
2024-05-09T02:19:01.777Z,25.27
2024-05-09T02:20:06.059Z,25.05
2024-05-09T02:22:10.895Z,25.17
2024-05-09T02:23:13.975Z,29.23
2024-05-09T02:24:15.947Z,27.30
2024-05-09T02:25:17.779Z,24.38
2024-05-09T02:26:19.746Z,24.15
2024-05-09T02:27:21.696Z,24.55
2024-05-09T02:28:23.662Z,25.98
2024-05-09T02:29:25.614Z,25.95
2024-05-09T02:30:37.891Z,20.90
2024-05-09T02:31:42.779Z,23.05
2024-05-09T02:32:44.763Z,24.40
2024-05-09T02:33:47.091Z,20.17
2024-05-09T02:34:49.207Z,21.13
2024-05-09T02:35:51.126Z,21.60
2024-05-09T02:36:56.211Z,24.10
2024-05-09T02:37:58.095Z,22.48
2024-05-09T02:38:59.961Z,21.92
2024-05-09T02:40:01.832Z,22.58
2024-05-09T02:41:03.836Z,21.92
2024-05-09T02:42:05.855Z,21.95
2024-05-09T02:43:10.227Z,20.48
2024-05-09T02:44:13.200Z,20.75
2024-05-09T02:45:15.188Z,20.55
2024-05-09T02:46:17.000Z,20.58
2024-05-09T02:47:18.941Z,21.45
2024-05-09T02:48:21.029Z,21.33
2024-05-09T02:49:23.076Z,19.80
2024-05-09T02:50:33.531Z,20.83
2024-05-09T02:51:39.937Z,20.67
2024-05-09T02:52:41.827Z,22.02
2024-05-09T02:53:43.664Z,22.77
2024-05-09T02:54:48.036Z,21.50
2024-05-09T02:56:51.898Z,20.48
2024-05-09T02:57:53.739Z,19.05
2024-05-09T02:58:56.921Z,21.10
2024-05-09T02:59:58.804Z,21.77
2024-05-09T03:01:00.717Z,21.63
2024-05-09T03:02:02.736Z,21.83
2024-05-09T03:03:05.930Z,21.42
2024-05-09T03:04:08.152Z,22.70
2024-05-09T03:05:10.808Z,20.95
2024-05-09T03:06:12.711Z,21.73
2024-05-09T03:07:14.539Z,22.73
2024-05-09T03:08:16.437Z,21.42
2024-05-09T03:09:18.674Z,24.20
2024-05-09T03:10:25.581Z,21.83
2024-05-09T03:11:30.597Z,20.70
2024-05-09T03:12:32.994Z,21.35
2024-05-09T03:13:35.390Z,23.17
2024-05-09T03:14:37.231Z,23.52
2024-05-09T03:15:39.355Z,23.17
2024-05-09T03:16:41.218Z,22.77
2024-05-09T03:17:43.369Z,23.33
2024-05-09T03:18:45.892Z,22.58
2024-05-09T03:19:47.786Z,24.08
2024-05-09T03:20:49.813Z,23.08
2024-05-09T03:21:51.663Z,23.65
2024-05-09T03:22:56.367Z,23.15
2024-05-09T03:23:58.830Z,23.15
2024-05-09T03:25:00.670Z,26.20
2024-05-09T03:26:02.577Z,22.55
2024-05-09T03:27:04.599Z,20.05
2024-05-09T03:28:06.926Z,21.10
2024-05-09T03:29:08.894Z,21.50
2024-05-09T03:30:15.481Z,21.23
2024-05-09T03:31:20.419Z,18.40
2024-05-09T03:32:22.344Z,18.15
2024-05-09T03:33:24.585Z,17.02
2024-05-09T03:34:26.728Z,17.75
2024-05-09T03:35:28.612Z,19.48
2024-05-09T03:36:30.463Z,21.45
2024-05-09T03:37:33.025Z,20.45
2024-05-09T03:38:39.876Z,17.98
2024-05-09T03:39:41.987Z,18.98
2024-05-09T03:40:48.604Z,18.85
2024-05-09T03:41:51.068Z,21.17
2024-05-09T03:42:52.904Z,18.40
2024-05-09T03:43:54.778Z,18.65
2024-05-09T03:44:57.951Z,19.20
2024-05-09T03:45:59.825Z,18.13
2024-05-09T03:47:01.740Z,15.95
2024-05-09T03:48:03.817Z,20.48
2024-05-09T03:49:06.055Z,21.40
2024-05-09T03:50:15.140Z,19.60
2024-05-09T03:51:20.068Z,20.58
2024-05-09T03:52:21.965Z,21.45
2024-05-09T03:53:23.929Z,22.00
2024-05-09T03:54:25.881Z,20.70
2024-05-09T03:55:28.136Z,20.70
2024-05-09T03:56:30.094Z,21.33
2024-05-09T03:57:32.059Z,22.60
2024-05-09T03:58:34.146Z,22.80
2024-05-09T03:59:37.012Z,21.73
2024-05-09T04:00:40.139Z,20.65
2024-05-09T04:01:42.483Z,20.85
2024-05-09T04:02:47.553Z,22.58
2024-05-09T04:03:49.598Z,19.55
2024-05-09T04:04:51.738Z,22.63
2024-05-09T04:05:53.705Z,19.83
2024-05-09T04:06:55.554Z,21.83
2024-05-09T04:07:57.500Z,19.27
2024-05-09T04:08:59.375Z,18.17
2024-05-09T04:10:01.203Z,18.65
2024-05-09T04:11:03.160Z,19.35
2024-05-09T04:12:07.842Z,18.38
2024-05-09T04:13:11.027Z,18.10
2024-05-09T04:14:13.076Z,20.02
2024-05-09T04:15:15.325Z,18.83
2024-05-09T04:16:17.167Z,17.73
2024-05-09T04:17:19.100Z,17.88
2024-05-09T04:18:21.117Z,20.25
2024-05-09T04:19:23.091Z,17.55
2024-05-09T04:20:35.822Z,19.30
2024-05-09T04:21:41.120Z,19.63
2024-05-09T04:22:43.182Z,19.75
2024-05-09T04:23:45.067Z,18.23
2024-05-09T04:24:47.646Z,20.08
2024-05-09T04:25:49.538Z,18.45
2024-05-09T04:26:51.498Z,19.60
2024-05-09T04:27:55.965Z,19.67
2024-05-09T04:28:58.338Z,18.73
2024-05-09T04:30:00.383Z,20.02
2024-05-09T04:31:02.294Z,21.42
2024-05-09T04:32:05.226Z,21.45
2024-05-09T04:33:09.125Z,18.92
2024-05-09T04:34:13.165Z,19.60
2024-05-09T04:35:18.406Z,18.75
2024-05-09T04:36:20.244Z,18.35
2024-05-09T04:37:22.085Z,21.00
2024-05-09T04:38:24.140Z,19.30
2024-05-09T04:39:26.036Z,20.05
2024-05-09T04:40:33.362Z,18.40
2024-05-09T04:41:39.416Z,20.00
2024-05-09T04:42:41.763Z,20.60
2024-05-09T04:43:43.718Z,20.25
2024-05-09T04:44:45.550Z,19.25
2024-05-09T04:45:47.507Z,20.13
2024-05-09T04:46:49.425Z,19.80
2024-05-09T04:47:51.487Z,19.52
2024-05-09T04:48:54.316Z,21.13
2024-05-09T04:49:56.317Z,20.08
2024-05-09T04:50:58.182Z,18.73
2024-05-09T04:52:00.057Z,19.75
2024-05-09T04:53:01.961Z,19.30
2024-05-09T04:54:03.940Z,19.75
2024-05-09T04:55:06.178Z,20.80
2024-05-09T04:56:08.967Z,19.88
2024-05-09T04:57:10.788Z,19.98
2024-05-09T04:58:12.650Z,20.13
2024-05-09T04:59:14.556Z,18.45
2024-05-09T05:00:21.893Z,17.63
2024-05-09T05:01:30.834Z,20.35
2024-05-09T05:02:32.946Z,18.00
2024-05-09T05:03:35.025Z,19.75
2024-05-09T05:04:37.085Z,20.80
2024-05-09T05:05:41.233Z,17.92
2024-05-09T05:06:43.447Z,18.83
2024-05-09T05:07:45.333Z,22.27
2024-05-09T05:08:47.198Z,19.90
2024-05-09T05:09:49.114Z,22.23
2024-05-09T05:10:51.053Z,20.77
2024-05-09T05:11:53.115Z,19.85
2024-05-09T05:13:13.846Z,21.45
2024-05-09T05:14:15.842Z,22.02
2024-05-09T05:15:17.827Z,22.15
2024-05-09T05:16:19.681Z,22.90
2024-05-09T05:17:21.668Z,23.45
2024-05-09T05:18:24.492Z,22.48
2024-05-09T05:19:26.604Z,24.48
2024-05-09T05:20:33.518Z,20.75
2024-05-09T05:21:36.085Z,23.65
2024-05-09T05:22:37.960Z,23.40
2024-05-09T05:23:41.116Z,25.60
2024-05-09T05:24:43.712Z,25.00
2024-05-09T05:25:48.173Z,25.27
2024-05-09T05:26:50.338Z,22.67
2024-05-09T05:27:52.478Z,22.98
2024-05-09T05:28:54.472Z,23.45
2024-05-09T05:29:56.364Z,24.70
2024-05-09T05:30:58.295Z,25.08
2024-05-09T05:32:00.274Z,25.02
2024-05-09T05:33:02.569Z,27.67
2024-05-09T05:34:04.712Z,24.60
2024-05-09T05:35:06.722Z,23.92
2024-05-09T05:36:09.576Z,25.52
2024-05-09T05:37:11.415Z,27.63
2024-05-09T05:38:13.595Z,26.23
2024-05-09T05:39:15.484Z,23.88
2024-05-09T05:40:27.600Z,24.95
2024-05-09T05:41:34.951Z,26.40
2024-05-09T05:42:36.853Z,26.15
2024-05-09T05:43:38.708Z,23.48
2024-05-09T05:44:40.560Z,24.52
2024-05-09T05:45:42.428Z,26.60
2024-05-09T05:46:44.438Z,24.88
2024-05-09T05:47:46.650Z,23.77
2024-05-09T05:48:48.683Z,26.08
2024-05-09T05:49:50.617Z,25.40
2024-05-09T05:50:52.540Z,26.60
2024-05-09T05:51:54.451Z,24.67
2024-05-09T05:52:56.398Z,25.08
2024-05-09T05:53:58.502Z,27.38
2024-05-09T05:55:00.338Z,26.83
2024-05-09T05:56:02.300Z,24.10
2024-05-09T05:57:04.492Z,26.77
2024-05-09T05:58:10.694Z,26.13
2024-05-09T05:59:15.042Z,26.75
2024-05-09T06:00:26.068Z,29.95
2024-05-09T06:01:32.294Z,27.92
2024-05-09T06:02:35.269Z,29.27
2024-05-09T06:03:37.371Z,28.98
2024-05-09T06:04:39.870Z,24.50
2024-05-09T06:05:46.118Z,29.33
2024-05-09T06:06:48.786Z,29.77
2024-05-09T06:07:50.605Z,29.02
2024-05-09T06:08:52.525Z,28.67
2024-05-09T06:09:54.533Z,32.50
2024-05-09T06:10:56.473Z,31.73
2024-05-09T06:11:58.469Z,32.03
2024-05-09T06:13:00.366Z,28.30
2024-05-09T06:14:02.506Z,29.77
2024-05-09T06:15:04.827Z,38.65
2024-05-09T06:16:06.915Z,30.33
2024-05-09T06:17:08.884Z,32.47
2024-05-09T06:18:12.324Z,32.80
2024-05-09T06:19:14.820Z,36.38
2024-05-09T06:20:23.885Z,30.65
2024-05-09T06:21:33.495Z,104.35
2024-05-09T06:22:35.501Z,155.30
2024-05-09T06:23:47.846Z,92.75
2024-05-09T06:24:49.695Z,87.57
2024-05-09T06:25:51.685Z,71.32
2024-05-09T06:26:53.511Z,72.03
2024-05-09T06:27:55.508Z,69.55
2024-05-09T06:28:57.429Z,51.70
2024-05-09T06:29:59.296Z,71.10
2024-05-09T06:31:01.948Z,53.10
2024-05-09T06:32:04.731Z,53.90
2024-05-09T06:33:08.267Z,54.78
2024-05-09T06:34:10.705Z,114.32
2024-05-09T06:35:12.670Z,248.43
2024-05-09T06:36:14.501Z,173.63
2024-05-09T06:37:16.363Z,157.23
2024-05-09T06:38:18.269Z,116.80
2024-05-09T06:39:20.157Z,96.88
2024-05-09T06:40:25.882Z,141.73
2024-05-09T06:41:36.190Z,302.35
2024-05-09T06:42:38.078Z,489.60
2024-05-09T06:43:39.936Z,475.17
2024-05-09T06:44:41.810Z,349.33
2024-05-09T06:45:43.956Z,575.35
2024-05-09T06:46:46.752Z,432.40
2024-05-09T06:47:48.877Z,343.52
2024-05-09T06:48:51.095Z,326.08
2024-05-09T06:49:53.220Z,387.42
2024-05-09T06:50:55.164Z,465.55
2024-05-09T06:51:57.112Z,431.55
2024-05-09T06:52:58.929Z,468.25
2024-05-09T06:54:00.792Z,451.17
2024-05-09T06:55:02.631Z,539.80
2024-05-09T06:56:04.735Z,532.45
2024-05-09T06:57:06.654Z,562.08
2024-05-09T06:58:09.509Z,479.95
2024-05-09T06:59:11.571Z,442.65
2024-05-09T07:00:19.199Z,433.55
2024-05-09T07:01:29.257Z,433.27
2024-05-09T07:02:32.157Z,472.15
2024-05-09T07:03:34.899Z,617.10
2024-05-09T07:04:36.914Z,459.95
2024-05-09T07:05:38.906Z,604.13
2024-05-09T07:06:41.026Z,520.55
2024-05-09T07:07:42.862Z,581.33
2024-05-09T07:08:44.753Z,467.92
2024-05-09T07:09:46.648Z,403.20
2024-05-09T07:10:48.630Z,295.83
2024-05-09T07:12:28.199Z,209.88
2024-05-09T07:13:41.134Z,181.13
2024-05-09T07:14:58.905Z,191.02
2024-05-09T07:16:06.018Z,163.40
2024-05-09T07:17:13.164Z,194.07
2024-05-09T07:18:19.797Z,157.98
2024-05-09T07:19:42.297Z,114.82
2024-05-09T07:20:52.704Z,95.70
2024-05-09T07:22:05.528Z,98.05
2024-05-09T07:23:11.131Z,93.80
2024-05-09T07:24:13.142Z,89.88
2024-05-09T07:25:15.340Z,112.63
2024-05-09T07:26:18.448Z,73.60
2024-05-09T07:27:20.604Z,64.03
2024-05-09T07:28:22.493Z,60.47
2024-05-09T07:29:24.303Z,63.47
2024-05-09T07:30:33.004Z,46.03
2024-05-09T07:31:36.246Z,45.25
2024-05-09T07:32:38.218Z,44.00
2024-05-09T07:33:40.412Z,39.35
2024-05-09T07:34:42.422Z,42.47
2024-05-09T07:35:44.392Z,33.25
2024-05-09T07:36:46.808Z,33.60
2024-05-09T07:37:50.208Z,35.13
2024-05-09T07:38:52.182Z,34.13
2024-05-09T07:39:54.028Z,35.38
2024-05-09T07:40:55.885Z,30.63
2024-05-09T07:41:57.725Z,34.05
2024-05-09T07:42:59.609Z,32.17
2024-05-09T07:44:01.596Z,28.08
2024-05-09T07:45:20.890Z,31.17
2024-05-09T07:47:36.428Z,29.88
2024-05-09T07:49:13.667Z,27.42
2024-05-09T07:50:54.909Z,28.88
2024-05-09T07:52:23.777Z,33.20
2024-05-09T07:53:21.834Z,31.02
2024-05-09T07:53:38.189Z,29.17
2024-05-09T07:54:40.172Z,25.30
2024-05-09T07:55:42.179Z,28.55
2024-05-09T07:56:44.405Z,30.42
2024-05-09T07:57:46.398Z,29.20
2024-05-09T07:58:50.366Z,27.52
2024-05-09T07:59:52.240Z,27.25
2024-05-09T08:00:54.512Z,29.88
2024-05-09T08:01:56.589Z,29.80
2024-05-09T08:02:58.642Z,30.65
2024-05-09T08:04:00.683Z,34.75
2024-05-09T08:05:02.815Z,30.05
2024-05-09T08:06:05.086Z,31.55
2024-05-09T08:07:06.924Z,31.00
2024-05-09T08:08:09.085Z,32.50
2024-05-09T08:09:16.675Z,31.88
2024-05-09T08:10:24.678Z,33.67
2024-05-09T08:11:32.574Z,32.80
2024-05-09T08:12:34.512Z,30.23
2024-05-09T08:13:36.410Z,28.85
2024-05-09T08:14:38.234Z,33.33
2024-05-09T08:15:40.148Z,33.58
2024-05-09T08:16:42.059Z,30.23
2024-05-09T08:17:43.958Z,30.52
2024-05-09T08:18:45.926Z,31.05
2024-05-09T08:19:48.122Z,30.65
2024-05-09T08:20:50.126Z,29.25
2024-05-09T08:21:52.027Z,30.02
2024-05-09T08:22:53.846Z,32.15
2024-05-09T08:23:56.055Z,29.23
2024-05-09T08:24:58.728Z,31.67
2024-05-09T08:26:00.639Z,30.45
2024-05-09T08:27:02.589Z,28.42
2024-05-09T08:28:05.403Z,29.17
2024-05-09T08:29:07.429Z,29.05
2024-05-09T08:30:15.594Z,32.00
2024-05-09T08:31:23.746Z,29.23
2024-05-09T08:32:27.568Z,31.38
2024-05-09T08:33:31.977Z,31.48
2024-05-09T08:34:34.006Z,33.00
2024-05-09T08:35:36.531Z,29.83
2024-05-09T08:36:40.041Z,34.15
2024-05-09T08:37:43.713Z,35.80
2024-05-09T08:38:45.657Z,34.67
2024-05-09T08:39:47.557Z,36.72
2024-05-09T08:40:49.827Z,35.70
2024-05-09T08:41:51.959Z,35.20
2024-05-09T08:42:56.249Z,37.05
2024-05-09T08:44:59.919Z,39.13
2024-05-09T08:46:04.763Z,39.40
2024-05-09T08:47:09.350Z,38.78
2024-05-09T08:48:12.952Z,37.55
2024-05-09T08:49:16.540Z,38.90
2024-05-09T08:50:28.903Z,34.05
2024-05-09T08:51:37.972Z,33.47
2024-05-09T08:52:39.926Z,35.75
2024-05-09T08:53:41.859Z,31.27
2024-05-09T08:54:45.147Z,30.05
2024-05-09T08:55:47.404Z,31.45
2024-05-09T08:56:51.432Z,30.25
2024-05-09T08:57:54.197Z,31.02
2024-05-09T08:58:59.863Z,29.27
2024-05-09T09:00:09.919Z,30.05
2024-05-09T09:01:14.708Z,27.15
2024-05-09T09:02:18.461Z,28.52
2024-05-09T09:03:25.353Z,28.42
2024-05-09T09:04:28.552Z,26.00
2024-05-09T09:05:31.740Z,27.60
2024-05-09T09:06:35.502Z,29.52
2024-05-09T09:07:40.456Z,26.67
2024-05-09T09:08:42.569Z,27.52
2024-05-09T09:09:45.913Z,27.75
2024-05-09T09:10:48.955Z,25.70
2024-05-09T09:11:50.902Z,30.08
2024-05-09T09:12:59.661Z,28.13
2024-05-09T09:14:01.564Z,29.63
2024-05-09T09:15:03.568Z,27.67
2024-05-09T09:16:06.892Z,27.48
2024-05-09T09:17:16.089Z,26.52
2024-05-09T09:18:18.816Z,31.58
2024-05-09T09:19:23.627Z,28.70
2024-05-09T09:20:34.120Z,28.35
2024-05-09T09:21:38.605Z,27.63
2024-05-09T09:22:40.493Z,31.63
2024-05-09T09:23:43.499Z,28.48
2024-05-09T09:24:45.739Z,32.85
2024-05-09T09:25:47.711Z,28.75
2024-05-09T09:26:49.590Z,29.85
2024-05-09T09:27:51.710Z,28.48
2024-05-09T09:28:53.691Z,31.10
2024-05-09T09:29:57.078Z,28.77
2024-05-09T09:31:05.477Z,28.23
2024-05-09T09:32:08.754Z,29.55
2024-05-09T09:33:11.286Z,30.50
2024-05-09T09:34:13.451Z,32.35
2024-05-09T09:35:15.891Z,32.00
2024-05-09T09:36:18.619Z,28.80
2024-05-09T09:37:28.441Z,32.35
2024-05-09T09:38:31.734Z,28.77
2024-05-09T09:39:35.379Z,31.15
2024-05-09T09:40:42.872Z,29.45
2024-05-09T09:41:49.103Z,29.35
2024-05-09T09:42:57.390Z,29.70
2024-05-09T09:44:01.050Z,25.90
2024-05-09T09:45:05.537Z,29.13
2024-05-09T09:46:11.777Z,27.55
2024-05-09T09:47:16.043Z,28.33
2024-05-09T09:48:19.974Z,26.25
2024-05-09T09:49:24.273Z,26.65
2024-05-09T09:50:33.487Z,30.73
2024-05-09T09:51:37.589Z,25.75
2024-05-09T09:52:39.455Z,26.50
2024-05-09T09:53:43.730Z,25.48
2024-05-09T09:54:48.132Z,25.75
2024-05-09T09:56:52.677Z,23.83
2024-05-09T09:57:56.424Z,24.52
2024-05-09T09:59:00.269Z,24.83
2024-05-09T10:00:03.149Z,23.77
2024-05-09T10:01:07.589Z,24.92
2024-05-09T10:02:09.950Z,24.40
2024-05-09T10:03:11.954Z,27.15
2024-05-09T10:04:16.399Z,26.38
2024-05-09T10:05:18.706Z,25.70
2024-05-09T10:06:23.080Z,25.88
2024-05-09T10:08:27.234Z,25.50
2024-05-09T10:09:29.282Z,25.20
2024-05-09T10:10:34.467Z,25.58
2024-05-09T10:11:45.055Z,25.23
2024-05-09T10:13:00.932Z,23.80
2024-05-09T10:14:03.009Z,23.23
2024-05-09T10:15:09.563Z,23.35
2024-05-09T10:16:12.308Z,21.48
2024-05-09T10:17:14.964Z,22.25
2024-05-09T10:18:17.173Z,20.83
2024-05-09T10:19:26.665Z,20.98
2024-05-09T10:20:39.985Z,19.42
2024-05-09T10:21:47.001Z,18.60
2024-05-09T10:22:52.401Z,17.98
2024-05-09T10:23:57.818Z,17.83
2024-05-09T10:25:07.282Z,17.33
2024-05-09T10:26:09.182Z,16.52
2024-05-09T10:27:11.040Z,18.42
2024-05-09T10:28:13.064Z,17.70
2024-05-09T10:29:16.637Z,17.92
2024-05-09T10:30:29.765Z,20.10
2024-05-09T10:31:39.504Z,18.60
2024-05-09T10:32:41.717Z,18.23
2024-05-09T10:33:49.811Z,19.85
2024-05-09T10:35:08.285Z,19.50
2024-05-09T10:36:13.552Z,18.20
2024-05-09T10:37:15.945Z,19.52
2024-05-09T10:38:18.477Z,21.13
2024-05-09T10:39:25.375Z,19.80
2024-05-09T10:40:31.353Z,21.83
2024-05-09T10:41:34.343Z,18.77
2024-05-09T10:42:39.383Z,22.70
2024-05-09T10:43:42.093Z,21.17
2024-05-09T10:44:43.919Z,21.27
2024-05-09T10:45:45.887Z,22.50
2024-05-09T10:46:48.168Z,24.45
2024-05-09T10:47:50.158Z,23.25
2024-05-09T10:48:52.630Z,23.02
2024-05-09T10:49:56.331Z,26.63
2024-05-09T10:50:58.340Z,24.88
2024-05-09T10:52:03.679Z,24.67
2024-05-09T10:53:05.587Z,24.88
2024-05-09T10:54:07.888Z,25.85
2024-05-09T10:55:09.823Z,27.05
2024-05-09T10:56:13.938Z,25.13
2024-05-09T10:57:15.890Z,26.75
2024-05-09T10:58:18.170Z,25.73
2024-05-09T10:59:20.117Z,27.33
2024-05-09T11:00:27.801Z,26.92
2024-05-09T11:01:35.710Z,27.77
2024-05-09T11:02:37.815Z,27.92
2024-05-09T11:03:40.410Z,26.45
2024-05-09T11:04:45.294Z,28.85
2024-05-09T11:05:47.690Z,29.15
2024-05-09T11:06:49.794Z,28.10
2024-05-09T11:07:51.853Z,28.45
2024-05-09T11:08:53.937Z,28.70
2024-05-09T11:09:55.966Z,27.00
2024-05-09T11:10:59.783Z,29.17
2024-05-09T11:12:02.531Z,29.52
2024-05-09T11:13:04.800Z,32.22
2024-05-09T11:14:13.148Z,31.92
2024-05-09T11:15:16.595Z,31.65
2024-05-09T11:16:21.176Z,31.25
2024-05-09T11:17:23.558Z,31.35
2024-05-09T11:18:28.191Z,31.13
2024-05-09T11:19:39.914Z,29.85
2024-05-09T11:20:41.855Z,31.67
2024-05-09T11:21:43.779Z,31.23
2024-05-09T11:22:45.846Z,30.00
2024-05-09T11:23:47.911Z,33.42
2024-05-09T11:24:49.908Z,29.98
2024-05-09T11:25:55.776Z,32.15
2024-05-09T11:26:58.538Z,30.63
2024-05-09T11:28:01.686Z,31.90
2024-05-09T11:29:03.602Z,31.98
2024-05-09T11:30:09.166Z,32.85
2024-05-09T11:31:13.553Z,32.63
2024-05-09T11:32:16.694Z,33.40
2024-05-09T11:33:19.626Z,34.20
2024-05-09T11:34:21.668Z,33.95
2024-05-09T11:35:23.534Z,33.45
2024-05-09T11:36:25.444Z,32.72
2024-05-09T11:37:27.398Z,33.63
2024-05-09T11:38:29.275Z,33.88
2024-05-09T11:39:31.248Z,34.25
2024-05-09T11:40:34.606Z,32.78
2024-05-09T11:41:36.790Z,33.50
2024-05-09T11:42:38.666Z,33.60
2024-05-09T11:43:40.531Z,32.00
2024-05-09T11:44:42.408Z,35.95
2024-05-09T11:45:44.323Z,34.00
2024-05-09T11:46:46.361Z,37.67
2024-05-09T11:47:48.389Z,38.33
2024-05-09T11:48:51.909Z,37.95
2024-05-09T11:49:56.917Z,39.00
2024-05-09T11:50:58.906Z,37.53
2024-05-09T11:52:00.889Z,38.22
2024-05-09T11:53:02.859Z,38.50
2024-05-09T11:54:04.700Z,40.03
2024-05-09T11:55:07.534Z,38.03
2024-05-09T11:56:11.782Z,35.55
2024-05-09T11:57:13.836Z,40.72
2024-05-09T11:58:18.073Z,40.55
2024-05-09T11:59:20.641Z,40.25
2024-05-09T12:00:29.698Z,39.45
2024-05-09T12:01:38.561Z,41.45
2024-05-09T12:02:40.476Z,42.75
2024-05-09T12:03:42.376Z,40.45
2024-05-09T12:04:44.564Z,42.33
2024-05-09T12:05:46.830Z,42.20
2024-05-09T12:06:48.910Z,42.28
2024-05-09T12:07:54.170Z,42.92
2024-05-09T12:08:56.735Z,43.58
2024-05-09T12:09:58.542Z,44.58
2024-05-09T12:11:01.023Z,42.38
2024-05-09T12:12:03.142Z,42.92
2024-05-09T12:13:06.893Z,42.85
2024-05-09T12:15:12.634Z,44.00
2024-05-09T12:16:14.700Z,41.78
2024-05-09T12:17:17.053Z,42.95
2024-05-09T12:18:18.960Z,35.00
2024-05-09T12:19:20.860Z,35.53
2024-05-09T12:20:28.874Z,36.75
2024-05-09T12:21:37.720Z,35.30
2024-05-09T12:22:39.604Z,33.60
2024-05-09T12:23:41.432Z,32.22
2024-05-09T12:24:43.268Z,29.40
2024-05-09T12:25:45.174Z,26.98
2024-05-09T12:26:47.285Z,30.30
2024-05-09T12:27:49.354Z,30.02
2024-05-09T12:28:51.219Z,26.98
2024-05-09T12:29:53.105Z,24.33
2024-05-09T12:30:54.975Z,24.75
2024-05-09T12:31:57.526Z,24.95
2024-05-09T12:32:59.576Z,23.52
2024-05-09T12:34:01.610Z,21.40
2024-05-09T12:35:03.556Z,21.70
2024-05-09T12:36:05.634Z,20.67
2024-05-09T12:37:07.592Z,20.98
2024-05-09T12:38:09.526Z,19.20
2024-05-09T12:39:11.441Z,18.80
2024-05-09T12:40:22.467Z,18.48
2024-05-09T12:41:28.620Z,17.73
2024-05-09T12:42:32.540Z,16.67
2024-05-09T12:43:35.228Z,17.27
2024-05-09T12:44:37.034Z,17.77
2024-05-09T12:45:39.905Z,18.42
2024-05-09T12:46:42.130Z,19.50
2024-05-09T12:47:44.062Z,20.20
2024-05-09T12:48:46.599Z,17.08
2024-05-09T12:49:48.584Z,16.45
2024-05-09T12:50:51.815Z,17.50
2024-05-09T12:51:53.796Z,15.18
2024-05-09T12:52:55.740Z,16.48
2024-05-09T12:53:57.664Z,15.50
2024-05-09T12:54:59.592Z,13.23
2024-05-09T12:56:03.118Z,13.18
2024-05-09T12:57:06.225Z,12.27
2024-05-09T12:58:08.942Z,12.13
2024-05-09T12:59:10.926Z,11.68
2024-05-09T13:00:23.220Z,10.40
2024-05-09T13:01:29.948Z,11.75
2024-05-09T13:02:31.981Z,9.32
2024-05-09T13:03:33.996Z,9.95
2024-05-09T13:04:36.081Z,11.43
2024-05-09T13:05:38.180Z,8.88
2024-05-09T13:06:40.285Z,7.07
2024-05-09T13:07:42.283Z,8.52
2024-05-09T13:08:44.152Z,8.30
2024-05-09T13:09:46.067Z,7.43
2024-05-09T13:10:48.283Z,7.70
2024-05-09T13:11:50.262Z,7.32
2024-05-09T13:12:52.789Z,6.47
2024-05-09T13:13:54.721Z,6.30
2024-05-09T13:14:56.586Z,5.85
2024-05-09T13:15:58.630Z,6.15
2024-05-09T13:17:00.665Z,6.25
2024-05-09T13:18:04.022Z,5.30
2024-05-09T13:19:06.156Z,6.53
2024-05-09T13:20:12.012Z,5.22
2024-05-09T13:21:20.416Z,6.40
2024-05-09T13:22:22.306Z,6.05
2024-05-09T13:23:24.129Z,6.60
2024-05-09T13:24:25.955Z,4.85
2024-05-09T13:25:27.804Z,5.40
2024-05-09T13:26:29.714Z,4.85
2024-05-09T13:27:31.693Z,5.88
2024-05-09T13:28:33.823Z,4.78
2024-05-09T13:29:36.004Z,4.97
2024-05-09T13:30:40.897Z,5.93
2024-05-09T13:31:44.103Z,6.78
2024-05-09T13:32:46.038Z,5.00
2024-05-09T13:33:48.281Z,6.28
2024-05-09T13:34:50.318Z,6.10
2024-05-09T13:35:52.292Z,5.28
2024-05-09T13:36:54.294Z,7.35
2024-05-09T13:37:56.378Z,6.38
2024-05-09T13:38:59.373Z,7.60
2024-05-09T13:40:01.466Z,6.38
2024-05-09T13:41:03.362Z,6.57
2024-05-09T13:42:05.460Z,6.35
2024-05-09T13:43:07.348Z,5.55
2024-05-09T13:44:09.873Z,5.20
2024-05-09T13:45:11.778Z,6.82
2024-05-09T13:46:13.752Z,6.72